ESNS Airport Information

Runway Information
Runway 10 Length 6890 ft width 148 ft
Elevation 157 ft Threshold 0 ft Heading 106
Runway 28 Length 6890 ft Width 148 ft
Elevation 125 ft Threshold 0 ft Heading 286
Airport Frequencies
Type TWR Name TWR Frequency 122.05 MHZ
Airport Navaids
Type VOR-DME Name Skelleftea Frequency 113400 KHZ
Airport Weather Information & NOTAM
ADDS - METARS form results

(1851 UTC 22 September 2018)
Data provider http://aviationweather.gov/metar/data/
 
METAR text: ESNS 221820Z 20009KT CAVOK 11/05 Q0981
Conditions at: ESNS (SKELLEFTEA AIRPO, SE) observed 1820 UTC 22 September 2018
Temperature: 11.0°C (52°F)
Dewpoint: 5.0°C (41°F) [RH = 66%]
Pressure (altimeter): 28.97 inches Hg (981.0 mb)
Winds: from the SSW (200 degrees) at 10 MPH (9 knots; 4.6 m/s)
Visibility: 6 or more miles (10+ km)
Ceiling: ceiling and visibility are OK
Clouds: unknown
Weather: no significant weather observed at this time

Forecast for: ESNS (SKELLEFTEA AIRPO, SE)
Text: TAF ESNS 221730Z 2218/2220 20012KT CAVOK
Forecast period: 1800 to 2000 UTC 22 September 2018
Forecast type: FROM: standard forecast or significant change
Winds: from the SSW (200 degrees) at 14 MPH (12 knots; 6.2 m/s)
Visibility: 6 or more miles 10+ km)
Ceiling: unknown
Clouds: missing
Weather: NSW  (no significant weather)